Terminal Aerodrome Forecast
Issued by NWS Mt. Holly, NJ

Home | Current Version | Previous Version | Text Only | Print | Product List | Glossary On
Versions: 1 2 3 4 5 6 7 8 9 10 11 12 13 14 15 16 17 18 19
000
FTUS41 KPHI 301400 AAB
TAFRDG
TAF AMD
KRDG 301407Z 3014/0112 17003KT 4SM HZ BKN008 OVC120
      TEMPO 3014/3015 6SM HZ SCT008 OVC120
     FM301500 14005KT P6SM SCT050
      TEMPO 3018/3022 BKN050
     FM302200 09005KT P6SM BKN050
     FM010200 00000KT 6SM BR BKN120
     FM010600 04006KT 2SM BR BKN008=

USA.gov is the U.S. government's official web portal to all federal, state and local government web resources and services.